createdAt,value
2023-05-08T04:36:50.616Z,20.82
2023-05-08T04:39:17.101Z,20.84
2023-05-08T04:41:43.654Z,21.75
2023-05-08T04:44:10.167Z,19.41
2023-05-08T04:46:36.616Z,22.19
2023-05-08T04:49:03.158Z,20.09
2023-05-08T04:51:29.732Z,20.64
2023-05-08T04:53:56.208Z,21.93
2023-05-08T04:56:22.745Z,21.32
2023-05-08T04:58:49.236Z,22.06
2023-05-08T05:01:15.820Z,22.55
2023-05-08T05:03:42.430Z,22.73
2023-05-08T05:06:09.012Z,21.28
2023-05-08T05:08:35.518Z,21.37
2023-05-08T05:11:02.130Z,20.18
2023-05-08T05:13:28.831Z,21.49
2023-05-08T05:15:55.418Z,21.63
2023-05-08T07:03:09.072Z,20.85
2023-05-08T07:05:35.704Z,20.37
2023-05-08T07:08:02.306Z,20.03
2023-05-08T07:10:28.878Z,19.39
2023-05-08T07:12:55.324Z,19.62
2023-05-08T07:15:26.366Z,18.39
2023-05-08T07:17:53.376Z,18.49
2023-05-08T07:20:20.053Z,19.43
2023-05-08T07:22:46.665Z,18.76
2023-05-08T07:25:13.412Z,19.18
2023-05-08T07:27:40.179Z,17.56
2023-05-08T07:30:06.691Z,18.36
2023-05-08T07:32:33.185Z,18.64
2023-05-08T07:34:59.750Z,18.10
2023-05-08T07:37:26.199Z,17.91
2023-05-08T07:39:52.681Z,20.74
2023-05-08T07:42:19.211Z,19.82
2023-05-08T07:44:53.769Z,19.31
2023-05-08T07:47:21.070Z,19.64
2023-05-08T07:49:47.561Z,21.36
2023-05-08T07:52:16.897Z,18.54
2023-05-08T07:54:43.381Z,18.95
2023-05-08T07:57:09.898Z,20.35
2023-05-08T07:59:36.410Z,19.09
2023-05-08T08:02:02.995Z,20.08
2023-05-08T08:04:29.723Z,19.07
2023-05-08T08:06:56.340Z,17.76
2023-05-08T08:09:22.895Z,18.13
2023-05-08T08:11:49.418Z,19.32
2023-05-08T08:14:15.970Z,17.61
2023-05-08T08:16:42.612Z,19.82
2023-05-08T08:19:09.129Z,17.73
2023-05-08T08:21:35.581Z,17.18
2023-05-08T08:24:02.127Z,19.37
2023-05-08T08:26:28.648Z,17.01
2023-05-08T08:28:55.102Z,16.56
2023-05-08T08:31:21.542Z,17.12
2023-05-08T08:33:48.023Z,17.43
2023-05-08T08:36:14.478Z,17.13
2023-05-08T08:38:40.934Z,16.16
2023-05-08T08:41:07.494Z,16.67
2023-05-08T08:43:34.010Z,16.27
2023-05-08T08:46:00.567Z,17.62
2023-05-08T08:48:27.005Z,17.20
2023-05-08T08:50:53.526Z,18.71
2023-05-08T08:53:20.002Z,17.79
2023-05-08T08:55:46.441Z,19.47
2023-05-08T08:58:13.294Z,18.06
2023-05-08T09:00:39.783Z,17.07
2023-05-08T09:03:06.379Z,17.28
2023-05-08T09:05:33.089Z,18.72
2023-05-08T09:07:59.594Z,17.63
2023-05-08T09:10:26.100Z,16.00
2023-05-08T09:12:52.744Z,17.83
2023-05-08T09:15:19.287Z,17.15
2023-05-08T09:17:45.894Z,16.78
2023-05-08T09:20:12.619Z,18.29
2023-05-08T09:22:39.283Z,18.15
2023-05-08T09:25:05.755Z,18.05
2023-05-08T09:27:32.295Z,16.89
2023-05-08T09:29:58.739Z,16.45
2023-05-08T09:32:25.268Z,17.18
2023-05-08T09:34:51.789Z,18.18
2023-05-08T09:37:18.280Z,17.60
2023-05-08T09:39:44.694Z,16.65
2023-05-08T09:42:11.154Z,19.04
2023-05-08T09:44:37.611Z,20.33
2023-05-08T09:47:04.081Z,17.60
2023-05-08T09:49:30.517Z,18.06
2023-05-08T09:51:57.038Z,17.38
2023-05-08T09:54:23.509Z,17.35
2023-05-08T09:56:49.957Z,19.79
2023-05-08T09:59:16.520Z,24.40
2023-05-08T10:01:43.043Z,26.27
2023-05-08T10:04:09.727Z,35.99
2023-05-08T10:06:36.366Z,46.05
2023-05-08T10:09:03.034Z,44.76
2023-05-08T10:11:29.499Z,50.26
2023-05-08T10:13:56.028Z,162.87
2023-05-08T10:16:22.722Z,282.79
2023-05-08T10:18:49.315Z,346.63
2023-05-08T10:21:15.862Z,328.80
2023-05-08T10:23:42.396Z,290.94
2023-05-08T10:26:08.948Z,285.54
2023-05-08T10:28:35.416Z,269.61
2023-05-08T10:31:02.176Z,266.42
2023-05-08T10:33:29.606Z,252.42
2023-05-08T10:35:57.557Z,233.97
2023-05-08T10:38:24.076Z,230.79
2023-05-08T10:40:50.651Z,235.31
2023-05-08T10:43:17.440Z,226.06
2023-05-08T10:45:44.045Z,218.20
2023-05-08T10:48:10.629Z,212.40
2023-05-08T10:50:37.099Z,210.59
2023-05-08T10:53:03.548Z,201.51
2023-05-08T10:55:30.199Z,189.21
2023-05-08T10:57:56.766Z,181.03
2023-05-08T11:00:23.266Z,179.68
2023-05-08T11:02:49.881Z,168.94
2023-05-08T11:05:16.585Z,163.66
2023-05-08T11:07:43.082Z,158.25
2023-05-08T11:10:09.550Z,150.58
2023-05-08T11:12:36.026Z,148.89
2023-05-08T11:15:02.533Z,149.22
2023-05-08T11:17:29.140Z,150.84
2023-05-08T11:19:55.632Z,150.54
2023-05-08T11:22:22.194Z,143.05
2023-05-08T11:24:48.727Z,135.17
2023-05-08T11:27:18.138Z,132.86
2023-05-08T11:29:44.650Z,123.48
2023-05-08T11:32:11.268Z,125.83
2023-05-08T11:34:37.683Z,121.78
2023-05-08T11:37:04.221Z,116.31
2023-05-08T11:39:30.703Z,119.81
2023-05-08T11:41:57.161Z,118.29
2023-05-08T11:44:23.648Z,114.58
2023-05-08T11:46:50.233Z,117.08
2023-05-08T11:49:16.856Z,108.59
2023-05-08T11:51:43.708Z,106.12
2023-05-08T11:54:10.186Z,102.37
2023-05-08T11:56:36.697Z,97.09
2023-05-08T11:59:03.182Z,94.48
2023-05-08T12:01:29.744Z,97.26
2023-05-08T12:06:22.739Z,90.98
2023-05-08T12:08:49.263Z,89.01
2023-05-08T12:11:15.778Z,79.66
2023-05-08T12:13:42.218Z,43.32
2023-05-08T12:16:08.727Z,33.59
2023-05-08T12:18:36.488Z,41.57
2023-05-08T12:21:03.905Z,46.53
2023-05-08T12:23:30.448Z,56.31
2023-05-08T12:25:56.938Z,56.91
2023-05-08T12:28:23.460Z,56.77
2023-05-08T12:30:53.115Z,53.11
2023-05-08T12:33:19.604Z,55.30
2023-05-08T12:35:46.112Z,50.99
2023-05-08T12:38:12.659Z,49.94
2023-05-08T12:40:39.060Z,52.43
2023-05-08T12:43:05.528Z,52.38
2023-05-08T12:45:32.033Z,49.99
2023-05-08T12:47:58.586Z,46.45
2023-05-08T12:50:25.128Z,48.36
2023-05-08T12:52:52.112Z,46.81
2023-05-08T12:55:18.707Z,46.08
2023-05-08T12:57:45.238Z,45.73
2023-05-08T13:00:12.266Z,44.26
2023-05-08T13:02:47.384Z,42.71
2023-05-08T13:05:15.701Z,47.64
2023-05-08T13:07:42.147Z,49.82
2023-05-08T13:10:08.664Z,48.59
2023-05-08T13:12:35.154Z,46.94
2023-05-08T13:15:01.672Z,47.07
2023-05-08T13:17:28.120Z,46.79
2023-05-08T13:19:54.579Z,48.35
2023-05-08T13:22:21.018Z,46.37
2023-05-08T13:24:47.498Z,47.56
2023-05-08T13:27:14.102Z,45.80
2023-05-08T13:29:40.620Z,46.16
2023-05-08T13:32:07.212Z,42.95
2023-05-08T13:34:34.818Z,45.92
2023-05-08T13:37:01.387Z,42.49
2023-05-08T13:39:27.812Z,44.56
2023-05-08T13:41:54.355Z,42.91
2023-05-08T13:44:20.862Z,42.33
2023-05-08T13:46:47.612Z,44.00
2023-05-08T13:49:14.095Z,39.25
2023-05-08T13:51:40.578Z,40.96
2023-05-08T13:54:08.216Z,40.08
2023-05-08T13:56:34.739Z,42.59
2023-05-08T13:59:01.242Z,42.34
2023-05-08T14:01:27.676Z,42.68
2023-05-08T14:03:54.270Z,42.70
2023-05-08T14:06:20.761Z,42.25
2023-05-08T14:11:33.921Z,40.30
2023-05-08T14:12:42.857Z,38.34
2023-05-08T14:14:00.520Z,40.94
2023-05-08T14:16:27.066Z,42.39
2023-05-08T14:18:53.601Z,40.63
2023-05-08T14:21:20.192Z,39.16
2023-05-08T14:23:46.657Z,39.11
2023-05-08T14:26:15.339Z,39.36
2023-05-08T14:28:41.897Z,40.09
2023-05-08T14:31:08.448Z,39.48
2023-05-08T14:33:35.039Z,39.73
2023-05-08T14:36:01.511Z,39.89
2023-05-08T14:38:28.084Z,36.57
2023-05-08T14:40:54.616Z,37.71
2023-05-08T14:43:21.072Z,37.76
2023-05-08T14:45:47.653Z,35.20
2023-05-08T14:48:14.317Z,37.54
2023-05-08T14:50:40.917Z,34.71
2023-05-08T14:53:07.543Z,35.31
2023-05-08T14:55:34.317Z,33.85
2023-05-08T14:58:00.964Z,32.70
2023-05-08T15:00:27.484Z,32.25
2023-05-08T15:02:54.110Z,31.76
2023-05-08T15:05:20.911Z,32.34
2023-05-08T15:07:47.471Z,31.46
2023-05-08T15:10:13.985Z,31.12
2023-05-08T15:12:40.531Z,32.43
2023-05-08T15:15:07.190Z,28.25
2023-05-08T15:17:33.706Z,29.41
2023-05-08T15:20:00.211Z,27.84
2023-05-08T15:22:27.879Z,27.28
2023-05-08T15:24:54.800Z,29.89
2023-05-08T15:27:21.299Z,27.80
2023-05-08T15:29:47.815Z,30.67
2023-05-08T15:32:14.301Z,28.23
2023-05-08T15:34:40.864Z,28.13
2023-05-08T15:37:07.327Z,28.13
2023-05-08T15:39:33.824Z,27.11
2023-05-08T15:42:00.360Z,26.76
2023-05-08T15:44:34.091Z,25.00
2023-05-08T15:47:09.015Z,27.06
2023-05-08T15:49:35.535Z,26.59
2023-05-08T15:52:02.012Z,27.68
2023-05-08T15:54:28.573Z,25.87
2023-05-08T15:56:55.068Z,26.02
2023-05-08T15:59:21.578Z,26.67
2023-05-08T16:01:48.134Z,26.61
2023-05-08T16:04:14.666Z,25.35
2023-05-08T16:06:41.153Z,24.17
2023-05-08T16:09:07.652Z,24.72
2023-05-08T16:11:34.077Z,25.67
2023-05-08T16:14:00.551Z,24.59
2023-05-08T16:16:27.088Z,22.48
2023-05-08T16:18:53.600Z,25.42
2023-05-08T16:21:20.060Z,24.52
2023-05-08T16:23:46.603Z,23.39
2023-05-08T16:26:13.076Z,23.32
2023-05-08T16:28:39.518Z,24.88
2023-05-08T16:31:05.960Z,23.92
2023-05-08T16:33:32.425Z,23.13
2023-05-08T16:35:58.837Z,23.62
2023-05-08T16:38:25.299Z,24.24
2023-05-08T16:40:51.837Z,23.48
2023-05-08T16:43:18.292Z,23.32
2023-05-08T16:45:44.795Z,22.73
2023-05-08T16:48:11.708Z,20.39
2023-05-08T16:50:38.482Z,22.13
2023-05-08T16:53:05.018Z,22.41
2023-05-08T16:55:31.487Z,21.68
2023-05-08T16:57:57.888Z,24.15
2023-05-08T17:00:24.376Z,23.85
2023-05-08T17:02:50.923Z,20.70
2023-05-08T17:05:17.548Z,22.09
2023-05-08T17:07:43.985Z,22.02
2023-05-08T17:10:10.544Z,21.19
2023-05-08T17:12:37.091Z,21.07
2023-05-08T17:15:06.333Z,20.45
2023-05-08T17:17:32.880Z,25.48
2023-05-08T17:20:03.234Z,26.05
2023-05-08T17:22:29.746Z,23.91
2023-05-08T17:24:56.319Z,25.88
2023-05-08T17:27:22.799Z,26.70
2023-05-08T17:29:51.290Z,24.20
2023-05-08T17:32:20.553Z,26.47
2023-05-08T17:34:50.185Z,27.07
2023-05-08T17:37:18.303Z,28.63
2023-05-08T17:39:50.679Z,26.50
2023-05-08T17:42:22.879Z,26.52
2023-05-08T17:45:01.933Z,27.26
2023-05-08T17:47:35.389Z,26.65
2023-05-08T17:50:04.629Z,24.79
2023-05-08T17:52:34.221Z,27.41
2023-05-08T17:55:02.812Z,25.15
2023-05-08T17:57:29.882Z,23.66
2023-05-08T18:00:05.838Z,26.08
2023-05-08T18:02:35.873Z,23.16
2023-05-08T18:05:08.701Z,23.06
2023-05-08T18:07:36.139Z,22.61
2023-05-08T18:10:02.617Z,24.04
2023-05-08T18:12:29.389Z,23.73
2023-05-08T18:15:00.489Z,22.82
2023-05-08T18:17:32.416Z,21.73
2023-05-08T18:19:59.470Z,21.16
2023-05-08T18:22:25.939Z,21.76
2023-05-08T18:24:52.462Z,22.41
2023-05-08T18:27:21.400Z,21.40
2023-05-08T18:29:48.169Z,22.64
2023-05-08T18:32:19.336Z,21.31
2023-05-08T18:34:52.738Z,21.27
2023-05-08T18:37:25.000Z,19.70
2023-05-08T18:39:51.736Z,19.53
2023-05-08T18:42:21.224Z,19.51
2023-05-08T18:44:47.708Z,21.18
2023-05-08T18:47:16.883Z,18.81
2023-05-08T18:49:50.791Z,18.74
2023-05-08T18:52:19.892Z,17.57
2023-05-08T18:54:48.580Z,16.40
2023-05-08T18:57:15.408Z,16.60
2023-05-08T18:59:46.221Z,18.58
2023-05-08T19:02:28.504Z,18.61
2023-05-08T19:05:01.241Z,17.84
2023-05-08T19:07:43.710Z,17.24
2023-05-08T19:10:15.327Z,17.69
2023-05-08T19:12:42.850Z,18.94
2023-05-08T19:15:11.293Z,16.51
2023-05-08T19:17:38.126Z,16.43
2023-05-08T19:22:45.005Z,15.24
2023-05-08T19:25:11.614Z,15.34
2023-05-08T19:27:38.137Z,15.97
2023-05-08T19:30:04.718Z,16.41
2023-05-08T19:32:31.139Z,15.44
2023-05-08T19:34:57.712Z,16.43
2023-05-08T19:37:24.152Z,17.84
2023-05-08T19:39:50.687Z,16.50
2023-05-08T19:42:17.360Z,16.01
2023-05-08T19:44:43.930Z,16.27
2023-05-08T19:47:10.404Z,16.49
2023-05-08T19:49:36.964Z,15.57
2023-05-08T19:52:03.488Z,16.41
2023-05-08T19:54:29.912Z,16.66
2023-05-08T19:56:58.164Z,16.38
2023-05-08T19:59:24.629Z,17.19
2023-05-08T20:01:51.168Z,18.01
2023-05-08T20:07:01.739Z,16.43
2023-05-08T20:09:28.249Z,16.51
2023-05-08T20:11:54.697Z,17.47
2023-05-08T20:14:21.191Z,15.82
2023-05-08T20:16:47.663Z,16.29
2023-05-08T20:19:14.193Z,16.61
2023-05-08T20:21:40.788Z,17.25
2023-05-08T20:24:07.307Z,16.93
2023-05-08T20:26:33.801Z,15.43
2023-05-08T20:29:00.331Z,18.11
2023-05-08T20:31:27.030Z,16.17
